Time;durP1;ratioP1;P1;durP2;ratioP2;P2;SDS_P1;SDS_P2;PMS_P1;PMS_P2;Temp;Humidity;BMP_temperature;BMP_pressure;BME280_temperature;BME280_humidity;BME280_pressure;Samples;Min_cycle;Max_cycle;Signal;HPM_P1;HPM_P2
2022/04/30 00:01:20;;;;;;;5.25;3.45;;;17.00;92.70;;;;;;5034259;28;20135;-72
2022/04/30 00:03:49;;;;;;;10.60;3.92;;;17.00;92.70;;;;;;5058995;28;20044;-73
2022/04/30 00:06:17;;;;;;;5.15;3.25;;;17.00;92.70;;;;;;5071501;28;20075;-75
2022/04/30 00:08:44;;;;;;;4.95;3.38;;;17.00;92.70;;;;;;5037739;28;20060;-73
2022/04/30 00:11:13;;;;;;;8.43;4.20;;;17.00;92.60;;;;;;5037736;28;20047;-73
2022/04/30 00:13:40;;;;;;;6.82;3.47;;;17.00;92.60;;;;;;5045472;28;20499;-72
2022/04/30 00:16:08;;;;;;;5.03;3.30;;;17.00;92.40;;;;;;5017802;28;20086;-72
2022/04/30 00:18:36;;;;;;;6.10;4.15;;;17.00;92.40;;;;;;5022183;28;20494;-73
2022/04/30 00:21:05;;;;;;;7.70;3.80;;;17.00;92.40;;;;;;5050840;28;20506;-72
2022/04/30 00:23:32;;;;;;;6.95;3.90;;;17.00;92.30;;;;;;5038411;28;20056;-73
2022/04/30 00:26:00;;;;;;;7.43;3.75;;;17.00;92.20;;;;;;5034472;28;20052;-73
2022/04/30 00:28:27;;;;;;;4.88;3.97;;;17.00;92.10;;;;;;5027660;28;20837;-73
2022/04/30 00:30:55;;;;;;;5.43;3.78;;;16.90;92.20;;;;;;5017971;28;20056;-73
2022/04/30 00:33:23;;;;;;;7.03;3.72;;;16.90;92.20;;;;;;5037175;28;20051;-73
2022/04/30 00:35:52;;;;;;;13.43;4.70;;;16.90;92.10;;;;;;5050988;28;20043;-73
2022/04/30 00:38:19;;;;;;;7.68;3.95;;;16.90;92.00;;;;;;5036373;28;20147;-73
2022/04/30 00:40:47;;;;;;;6.38;3.55;;;16.90;92.00;;;;;;5067885;28;20059;-73
2022/04/30 00:43:15;;;;;;;8.15;4.45;;;16.80;92.00;;;;;;5050848;28;20388;-73
2022/04/30 00:45:47;;;;;;;5.32;3.55;;;16.80;92.10;;;;;;5038357;28;20138;-75
2022/04/30 00:48:15;;;;;;;7.82;4.07;;;16.80;92.00;;;;;;5070992;28;20105;-73
2022/04/30 00:50:43;;;;;;;6.55;3.67;;;16.80;92.00;;;;;;5089674;28;20131;-73
2022/04/30 00:53:13;;;;;;;5.68;3.47;;;16.80;92.10;;;;;;5069096;28;20126;-73
2022/04/30 00:55:44;;;;;;;5.30;4.15;;;16.80;92.10;;;;;;5072031;28;20517;-73
2022/04/30 00:58:16;;;;;;;8.35;4.65;;;16.80;92.00;;;;;;5055588;28;20482;-73
2022/04/30 01:00:45;;;;;;;4.80;3.13;;;16.80;92.00;;;;;;5055706;28;20032;-73
2022/04/30 01:03:22;;;;;;;6.25;4.38;;;16.80;92.00;;;;;;5071537;28;20516;-74
2022/04/30 01:06:04;;;;;;;7.65;4.10;;;16.80;92.00;;;;;;5061173;28;20097;-73
2022/04/30 01:08:32;;;;;;;6.80;3.35;;;16.70;92.00;;;;;;5059324;28;20044;-72
2022/04/30 01:11:01;;;;;;;6.90;4.38;;;16.70;92.00;;;;;;5059276;28;20051;-73
2022/04/30 01:13:34;;;;;;;5.25;3.60;;;16.70;92.00;;;;;;5075677;28;20054;-74
2022/04/30 01:16:08;;;;;;;12.43;3.85;;;16.70;92.00;;;;;;5075483;28;20040;-73
2022/04/30 01:18:36;;;;;;;8.02;3.25;;;16.70;92.00;;;;;;5058848;28;20048;-72
2022/04/30 01:21:11;;;;;;;6.35;3.72;;;16.60;92.00;;;;;;5058438;28;20054;-74
2022/04/30 01:23:43;;;;;;;4.90;3.03;;;16.60;92.00;;;;;;5075740;28;20074;-73
2022/04/30 01:26:13;;;;;;;5.20;3.58;;;16.60;92.00;;;;;;5075690;28;20052;-73
2022/04/30 01:28:43;;;;;;;4.85;3.22;;;16.60;92.00;;;;;;5058640;28;20075;-74
2022/04/30 01:39:33;;;;;;;4.65;3.00;;;16.60;92.10;;;;;;5072384;28;20041;-73
2022/04/30 01:42:11;;;;;;;7.25;3.65;;;16.50;92.20;;;;;;5058371;28;20071;-74
2022/04/30 01:44:46;;;;;;;8.10;2.80;;;16.40;92.20;;;;;;5075772;28;20152;-73
2022/04/30 01:47:18;;;;;;;4.35;2.95;;;16.40;92.30;;;;;;5075265;28;20086;-73
2022/04/30 01:49:46;;;;;;;6.75;4.00;;;16.40;92.30;;;;;;5058184;28;20063;-74
2022/04/30 01:52:14;;;;;;;6.75;3.70;;;16.40;92.30;;;;;;5058307;28;20578;-74
2022/04/30 01:54:42;;;;;;;5.80;3.65;;;16.40;92.30;;;;;;5074780;28;20189;-73
2022/04/30 01:57:10;;;;;;;8.40;3.95;;;16.40;92.30;;;;;;5041485;28;20166;-74
2022/04/30 01:59:38;;;;;;;6.07;2.83;;;16.40;92.30;;;;;;5074827;28;20048;-73
2022/04/30 02:02:06;;;;;;;5.72;3.83;;;16.30;92.40;;;;;;5093257;28;20075;-73
2022/04/30 02:04:35;;;;;;;5.95;2.70;;;16.30;92.30;;;;;;5074416;28;20574;-73
2022/04/30 02:07:03;;;;;;;5.45;2.80;;;16.30;92.20;;;;;;5074760;28;20470;-73
2022/04/30 02:09:32;;;;;;;7.97;3.85;;;16.30;92.40;;;;;;5054701;28;20578;-73
2022/04/30 02:12:01;;;;;;;5.32;3.05;;;16.30;92.40;;;;;;5054353;28;20068;-73
2022/04/30 02:14:32;;;;;;;6.50;3.42;;;16.30;92.30;;;;;;5054604;28;20470;-73
2022/04/30 02:17:01;;;;;;;4.80;3.20;;;16.30;92.40;;;;;;5037502;28;20052;-73
2022/04/30 02:20:18;;;;;;;5.20;3.95;;;16.20;92.40;;;;;;5053828;28;20056;-74
2022/04/30 02:22:19;;;;;;;6.22;3.70;;;16.20;92.40;;;;;;5053731;28;20050;-73
2022/04/30 02:24:48;;;;;;;4.60;3.20;;;16.30;92.40;;;;;;5070979;28;20098;-73
2022/04/30 02:27:17;;;;;;;5.82;3.38;;;16.20;92.30;;;;;;5054183;28;20048;-73
2022/04/30 02:29:44;;;;;;;6.40;3.65;;;16.20;92.40;;;;;;5070992;28;20056;-74
2022/04/30 02:32:13;;;;;;;5.80;3.17;;;16.20;92.30;;;;;;5071671;28;20053;-73
2022/04/30 02:34:40;;;;;;;6.03;2.70;;;16.20;92.30;;;;;;5050721;28;20114;-73
2022/04/30 02:37:13;;;;;;;6.97;3.35;;;16.30;92.30;;;;;;5066942;28;20072;-73
2022/04/30 02:39:45;;;;;;;4.85;2.65;;;16.30;92.20;;;;;;5051124;28;20056;-73
2022/04/30 02:42:13;;;;;;;12.05;3.80;;;16.30;92.20;;;;;;5034071;28;20045;-73
2022/04/30 02:44:41;;;;;;;4.13;2.63;;;16.20;92.20;;;;;;5051131;28;20064;-73
2022/04/30 02:47:09;;;;;;;4.93;2.70;;;16.20;92.20;;;;;;5050480;28;20045;-73
2022/04/30 02:49:38;;;;;;;5.35;3.25;;;16.30;92.30;;;;;;5050846;28;20048;-73
2022/04/30 02:52:05;;;;;;;8.07;3.45;;;16.30;92.30;;;;;;5050233;28;20088;-73
2022/04/30 02:54:34;;;;;;;4.68;3.00;;;16.30;92.20;;;;;;5017864;28;20094;-74
2022/04/30 02:57:02;;;;;;;6.45;3.50;;;16.20;92.20;;;;;;5034110;28;20467;-73
2022/04/30 03:02:31;;;;;;;5.63;3.30;;;16.20;92.30;;;;;;5053171;28;20528;-73
2022/04/30 03:04:59;;;;;;;6.45;3.40;;;16.10;92.10;;;;;;5053722;28;20110;-73
2022/04/30 03:07:26;;;;;;;4.40;3.28;;;16.10;92.30;;;;;;5053877;28;20057;-73
2022/04/30 03:09:54;;;;;;;6.25;3.17;;;16.10;92.30;;;;;;5082975;28;20052;-73
2022/04/30 03:12:21;;;;;;;6.80;3.67;;;16.10;92.30;;;;;;5057365;28;20062;-73
2022/04/30 03:14:49;;;;;;;6.18;3.13;;;16.10;92.30;;;;;;5073382;28;20123;-73
2022/04/30 03:22:49;;;;;;;5.90;3.60;;;16.10;92.40;;;;;;5073548;28;20131;-74
2022/04/30 03:25:17;;;;;;;9.38;3.65;;;16.10;92.40;;;;;;5071685;28;20123;-74
2022/04/30 03:27:44;;;;;;;5.68;3.35;;;16.00;92.40;;;;;;5038983;28;20044;-73
2022/04/30 03:30:13;;;;;;;7.40;3.80;;;16.10;92.50;;;;;;5056407;28;20550;-74
2022/04/30 03:32:42;;;;;;;4.75;3.38;;;16.00;92.50;;;;;;5073363;28;20040;-73
2022/04/30 03:35:10;;;;;;;6.78;3.33;;;16.10;92.60;;;;;;5090779;28;20044;-73
2022/04/30 03:37:38;;;;;;;6.88;3.20;;;16.00;92.60;;;;;;5091207;28;20076;-74
2022/04/30 03:40:06;;;;;;;5.68;3.65;;;16.10;92.60;;;;;;5056527;28;20085;-73
2022/04/30 03:42:36;;;;;;;5.97;2.85;;;16.00;92.60;;;;;;5073383;28;20131;-74
2022/04/30 03:45:05;;;;;;;5.57;3.10;;;16.00;92.70;;;;;;5039667;28;20051;-74
2022/04/30 03:47:32;;;;;;;7.35;4.22;;;16.00;92.80;;;;;;5039773;28;20048;-74
2022/04/30 03:50:00;;;;;;;8.60;3.70;;;15.90;92.90;;;;;;5072886;28;20122;-73
2022/04/30 03:52:30;;;;;;;10.18;3.92;;;15.90;92.90;;;;;;5039991;28;20113;-73
2022/04/30 03:54:58;;;;;;;4.57;3.20;;;15.90;92.90;;;;;;5056010;28;20044;-74
2022/04/30 03:57:28;;;;;;;7.70;3.10;;;15.90;92.90;;;;;;5073041;28;20504;-73
2022/04/30 03:59:56;;;;;;;4.53;3.03;;;15.90;93.00;;;;;;5039726;28;20146;-74
2022/04/30 04:02:24;;;;;;;8.70;3.10;;;15.90;93.00;;;;;;5072931;28;20044;-74
2022/04/30 04:04:55;;;;;;;7.15;3.55;;;15.90;93.10;;;;;;5072763;28;20059;-73
2022/04/30 04:07:23;;;;;;;8.38;4.28;;;15.90;93.10;;;;;;5038858;28;20053;-75
2022/04/30 04:09:50;;;;;;;5.18;3.80;;;15.90;93.20;;;;;;5059940;28;20045;-74
2022/04/30 04:12:18;;;;;;;5.47;3.17;;;15.90;93.20;;;;;;5063596;28;20086;-74
2022/04/30 04:17:38;;;;;;;6.00;3.38;;;16.00;93.20;;;;;;5097033;28;20133;-74
2022/04/30 04:20:13;;;;;;;5.65;2.95;;;16.00;93.20;;;;;;5070754;28;20039;-75
2022/04/30 04:22:41;;;;;;;6.90;3.13;;;16.00;93.20;;;;;;5074255;28;20067;-74
2022/04/30 04:27:55;;;;;;;5.40;3.05;;;16.10;93.30;;;;;;5051812;28;20044;-73
2022/04/30 04:30:25;;;;;;;4.97;3.38;;;16.10;93.30;;;;;;5051762;28;20037;-74
2022/04/30 04:32:53;;;;;;;10.25;3.60;;;16.10;93.40;;;;;;5051970;28;20049;-74
2022/04/30 04:35:21;;;;;;;7.72;3.83;;;16.10;93.40;;;;;;5051780;28;20102;-73
2022/04/30 04:37:49;;;;;;;9.10;3.70;;;16.10;93.40;;;;;;5035188;28;20049;-73
2022/04/30 04:40:17;;;;;;;5.47;3.00;;;16.20;93.50;;;;;;5036362;28;20044;-73
2022/04/30 04:42:46;;;;;;;5.93;3.75;;;16.20;93.50;;;;;;5035546;28;20102;-73
2022/04/30 04:45:14;;;;;;;6.88;3.42;;;16.30;93.60;;;;;;5052247;28;20040;-72
2022/04/30 04:47:49;;;;;;;5.10;3.42;;;16.40;93.50;;;;;;5035633;28;20088;-73
2022/04/30 04:50:17;;;;;;;5.68;2.97;;;16.60;93.30;;;;;;5051944;28;20087;-73
2022/04/30 04:52:46;;;;;;;4.78;3.38;;;16.70;93.30;;;;;;5051915;28;20090;-73
2022/04/30 04:55:15;;;;;;;7.13;3.42;;;16.80;93.10;;;;;;5077415;28;20055;-73
2022/04/30 04:57:43;;;;;;;5.38;3.50;;;16.90;93.00;;;;;;5055685;28;20135;-73
2022/04/30 05:00:11;;;;;;;6.55;3.47;;;17.10;92.90;;;;;;5072635;28;20054;-73
2022/04/30 05:02:38;;;;;;;9.63;4.15;;;17.20;92.80;;;;;;5055404;28;20040;-73
2022/04/30 05:05:07;;;;;;;5.78;3.35;;;17.30;92.50;;;;;;5054853;28;20082;-73
2022/04/30 05:07:34;;;;;;;8.15;3.47;;;17.40;92.50;;;;;;5055478;28;20088;-73
2022/04/30 05:10:02;;;;;;;6.70;3.70;;;17.50;92.50;;;;;;5053238;28;20043;-72
2022/04/30 05:12:30;;;;;;;7.30;3.45;;;17.70;92.30;;;;;;5055413;28;20047;-73
2022/04/30 05:14:58;;;;;;;7.82;3.60;;;17.80;92.20;;;;;;5055025;28;20389;-73
2022/04/30 05:17:25;;;;;;;8.95;3.72;;;17.90;92.10;;;;;;5055340;28;20036;-73
2022/04/30 05:19:53;;;;;;;8.02;3.58;;;18.00;91.90;;;;;;5038812;28;20054;-73
2022/04/30 05:22:20;;;;;;;7.82;3.35;;;18.10;91.70;;;;;;5055456;28;20060;-73
2022/04/30 05:24:49;;;;;;;6.00;3.05;;;18.30;91.60;;;;;;5055264;28;20044;-73
2022/04/30 05:27:17;;;;;;;6.43;2.80;;;18.40;91.50;;;;;;5055087;28;20514;-72
2022/04/30 05:29:45;;;;;;;7.00;3.13;;;18.50;91.40;;;;;;5071925;28;20075;-73
2022/04/30 05:32:12;;;;;;;5.93;3.70;;;18.60;91.30;;;;;;5055244;28;20059;-73
2022/04/30 05:34:40;;;;;;;5.18;2.58;;;18.70;91.20;;;;;;5038651;28;20154;-73
2022/04/30 05:37:08;;;;;;;10.98;3.00;;;18.80;91.10;;;;;;5054719;28;20078;-75
2022/04/30 05:39:36;;;;;;;7.57;2.88;;;19.00;91.00;;;;;;5055065;28;20048;-73
2022/04/30 05:42:03;;;;;;;7.40;3.20;;;19.00;90.80;;;;;;5055461;28;20123;-73
2022/04/30 05:44:31;;;;;;;6.68;3.42;;;19.10;90.90;;;;;;5054358;28;20693;-73
2022/04/30 05:46:59;;;;;;;6.60;4.20;;;19.20;90.80;;;;;;5054628;28;20931;-73
2022/04/30 05:49:27;;;;;;;5.50;3.67;;;19.30;90.60;;;;;;5055602;28;20074;-73
2022/04/30 05:51:54;;;;;;;8.65;3.83;;;19.50;90.60;;;;;;5075400;28;20426;-73
2022/04/30 05:54:22;;;;;;;5.47;3.63;;;19.60;90.50;;;;;;5058527;28;20052;-73
2022/04/30 05:56:49;;;;;;;6.60;3.88;;;19.80;90.40;;;;;;5074648;28;20052;-72
2022/04/30 05:59:18;;;;;;;4.70;3.38;;;19.90;90.20;;;;;;5058774;28;20043;-72
2022/04/30 06:01:46;;;;;;;7.40;3.83;;;20.00;90.10;;;;;;5041912;28;20094;-73
2022/04/30 06:04:13;;;;;;;6.22;3.97;;;20.10;90.10;;;;;;5073057;28;20492;-74
2022/04/30 06:06:42;;;;;;;7.32;3.38;;;20.30;90.00;;;;;;5058976;28;20493;-73
2022/04/30 06:09:09;;;;;;;5.30;3.05;;;20.40;89.90;;;;;;5093172;28;20052;-74
2022/04/30 06:11:37;;;;;;;4.72;3.17;;;20.50;89.80;;;;;;5058214;28;20383;-73
2022/04/30 06:14:05;;;;;;;7.82;4.18;;;20.60;89.80;;;;;;5058075;28;20047;-73
2022/04/30 06:16:32;;;;;;;5.43;3.13;;;20.70;89.60;;;;;;5041779;28;20139;-73
2022/04/30 06:19:00;;;;;;;6.35;3.65;;;20.80;89.50;;;;;;5058454;28;20027;-74
2022/04/30 06:21:37;;;;;;;6.72;4.10;;;20.80;89.50;;;;;;5076489;28;20036;-74
2022/04/30 06:24:05;;;;;;;6.80;3.08;;;20.90;89.80;;;;;;5057969;28;20068;-74
2022/04/30 06:26:33;;;;;;;6.25;3.35;;;21.00;90.10;;;;;;5057766;28;20048;-72
2022/04/30 06:29:02;;;;;;;6.75;3.58;;;21.00;89.70;;;;;;5057716;28;20043;-72
2022/04/30 06:31:30;;;;;;;5.70;4.57;;;21.20;89.50;;;;;;5058141;28;20497;-74
2022/04/30 06:33:58;;;;;;;9.25;4.47;;;21.30;89.30;;;;;;5057546;28;20044;-74
2022/04/30 06:36:25;;;;;;;7.10;3.80;;;21.40;89.10;;;;;;5057132;28;20089;-74
2022/04/30 06:38:53;;;;;;;9.05;3.65;;;21.50;89.10;;;;;;5092620;28;20042;-74
2022/04/30 06:41:23;;;;;;;5.55;3.85;;;21.60;88.70;;;;;;5057704;28;20048;-74
2022/04/30 06:43:51;;;;;;;7.35;3.85;;;21.70;88.50;;;;;;5074673;28;20048;-74
2022/04/30 06:46:18;;;;;;;5.55;4.07;;;21.60;88.70;;;;;;5074231;28;20048;-74
2022/04/30 06:48:46;;;;;;;6.05;3.47;;;21.70;88.50;;;;;;5057715;28;20047;-74
2022/04/30 06:51:14;;;;;;;9.98;3.60;;;21.70;88.40;;;;;;5073972;28;20044;-74
2022/04/30 06:59:14;;;;;;;8.55;3.35;;;21.80;88.10;;;;;;5057108;28;19970;-73
2022/04/30 07:01:48;;;;;;;7.38;3.65;;;21.90;88.20;;;;;;5054136;28;20048;-74
2022/04/30 07:04:17;;;;;;;7.65;4.75;;;21.90;88.40;;;;;;5073976;28;20050;-75
2022/04/30 07:06:48;;;;;;;11.15;3.80;;;21.90;88.30;;;;;;5091925;28;20040;-74
2022/04/30 07:09:16;;;;;;;6.57;3.70;;;22.00;88.20;;;;;;5057410;28;20552;-74
2022/04/30 07:11:44;;;;;;;8.57;3.35;;;22.00;88.20;;;;;;5074150;28;20561;-75
2022/04/30 07:14:12;;;;;;;6.57;3.67;;;22.00;88.00;;;;;;5057435;28;20406;-74
2022/04/30 07:16:42;;;;;;;9.60;4.13;;;22.00;88.30;;;;;;5041051;28;20714;-74
2022/04/30 07:19:10;;;;;;;8.68;4.32;;;22.10;88.20;;;;;;5072913;28;20043;-75
2022/04/30 07:21:37;;;;;;;4.60;3.10;;;22.10;87.90;;;;;;5073993;28;20066;-74
2022/04/30 07:24:05;;;;;;;6.50;3.65;;;22.00;87.80;;;;;;5040261;28;20147;-73
2022/04/30 07:26:33;;;;;;;11.82;3.83;;;22.00;88.00;;;;;;5073542;28;20036;-73
2022/04/30 07:29:00;;;;;;;5.03;3.40;;;22.10;88.00;;;;;;5040545;28;20048;-73
2022/04/30 07:31:28;;;;;;;6.35;4.07;;;22.00;87.80;;;;;;5073712;28;20126;-73
2022/04/30 07:33:56;;;;;;;5.28;4.18;;;22.10;87.90;;;;;;5056453;28;20677;-75
2022/04/30 07:36:26;;;;;;;8.35;3.50;;;22.10;87.60;;;;;;5040485;28;20485;-72
2022/04/30 07:38:55;;;;;;;6.03;4.03;;;22.30;87.30;;;;;;5056794;28;20425;-73
2022/04/30 07:41:22;;;;;;;5.53;3.90;;;22.30;87.50;;;;;;5056558;28;20070;-73
2022/04/30 07:43:50;;;;;;;6.85;4.15;;;22.30;87.10;;;;;;5056881;28;20044;-73
2022/04/30 07:46:18;;;;;;;7.97;3.67;;;22.40;87.10;;;;;;5090751;28;20048;-73
2022/04/30 07:48:45;;;;;;;9.20;3.85;;;22.60;87.20;;;;;;5039754;28;20067;-75
2022/04/30 07:51:14;;;;;;;6.00;3.30;;;22.80;87.20;;;;;;5073109;28;20040;-75
2022/04/30 07:53:42;;;;;;;8.10;3.60;;;22.90;86.80;;;;;;5056701;28;20168;-73
2022/04/30 07:56:10;;;;;;;9.43;4.20;;;23.00;86.70;;;;;;5056683;28;20839;-74
2022/04/30 07:58:38;;;;;;;7.60;4.30;;;23.00;86.20;;;;;;5039761;28;20102;-74
2022/04/30 08:01:06;;;;;;;6.90;4.15;;;23.00;85.60;;;;;;5072107;28;20050;-73
2022/04/30 08:03:34;;;;;;;6.07;3.40;;;23.00;85.80;;;;;;5056269;28;20051;-74
2022/04/30 08:06:02;;;;;;;14.75;5.10;;;23.00;85.80;;;;;;5039849;28;20047;-73
2022/04/30 08:08:30;;;;;;;8.68;3.70;;;23.00;85.90;;;;;;5072731;28;20048;-74
2022/04/30 08:10:57;;;;;;;8.35;3.88;;;23.10;86.20;;;;;;5072246;28;20436;-73
2022/04/30 08:13:26;;;;;;;9.00;3.95;;;23.20;86.00;;;;;;5055923;28;20101;-74
2022/04/30 08:15:54;;;;;;;6.93;4.00;;;23.20;86.00;;;;;;5056223;28;20048;-73
2022/04/30 08:18:21;;;;;;;6.28;3.53;;;23.30;85.90;;;;;;5039439;28;20177;-73
2022/04/30 08:20:49;;;;;;;6.63;3.35;;;23.40;86.20;;;;;;5055882;28;20410;-73
2022/04/30 08:23:18;;;;;;;7.88;3.95;;;23.40;86.20;;;;;;5056637;28;20491;-73
2022/04/30 08:25:46;;;;;;;6.47;3.90;;;23.50;85.60;;;;;;5072823;28;20094;-73
2022/04/30 08:28:14;;;;;;;5.40;3.28;;;23.50;85.70;;;;;;5039216;28;20052;-74
2022/04/30 08:30:41;;;;;;;9.00;3.85;;;23.60;85.60;;;;;;5073052;28;20122;-73
2022/04/30 08:33:09;;;;;;;6.45;3.97;;;23.70;85.30;;;;;;5072347;28;20056;-75
2022/04/30 08:35:36;;;;;;;5.53;3.53;;;23.70;85.20;;;;;;5069581;28;20045;-73
2022/04/30 08:38:09;;;;;;;7.32;3.20;;;23.60;84.90;;;;;;5072116;28;20052;-76
2022/04/30 08:40:38;;;;;;;11.25;4.10;;;23.80;84.70;;;;;;5072137;28;20040;-74
2022/04/30 08:43:14;;;;;;;7.15;3.47;;;23.80;85.20;;;;;;5090093;28;20047;-74
2022/04/30 08:45:42;;;;;;;;;;;23.80;85.00;;;;;;5056370;28;20047;-74
2022/04/30 08:48:13;;;;;;;8.88;3.95;;;23.90;85.30;;;;;;5055908;28;19928;-74
2022/04/30 08:50:43;;;;;;;9.32;3.92;;;24.00;85.20;;;;;;5056084;28;20040;-74
2022/04/30 08:53:11;;;;;;;9.65;4.47;;;24.10;84.90;;;;;;5055740;28;20067;-76
2022/04/30 08:55:39;;;;;;;8.43;4.53;;;24.10;84.80;;;;;;5055580;28;20474;-73
2022/04/30 08:58:06;;;;;;;5.53;3.28;;;24.10;84.00;;;;;;5072527;28;20047;-74
2022/04/30 09:00:46;;;;;;;8.93;3.70;;;24.10;84.40;;;;;;5039390;28;20152;-74
2022/04/30 09:03:19;;;;;;;8.70;3.33;;;24.00;84.50;;;;;;5038335;28;20509;-75
2022/04/30 09:05:48;;;;;;;7.65;3.88;;;24.10;84.50;;;;;;5071975;28;20093;-74
2022/04/30 09:08:16;;;;;;;8.93;3.85;;;24.10;84.30;;;;;;5054864;28;20513;-73
2022/04/30 09:10:44;;;;;;;4.90;3.50;;;24.10;84.40;;;;;;5072460;28;20056;-74
2022/04/30 09:13:14;;;;;;;7.38;4.28;;;24.00;84.90;;;;;;5039031;28;20812;-73
2022/04/30 09:15:44;;;;;;;6.57;3.58;;;24.00;84.50;;;;;;5055811;28;20122;-73
2022/04/30 09:18:14;;;;;;;8.38;3.83;;;24.00;84.60;;;;;;5072352;28;20072;-74
2022/04/30 09:20:47;;;;;;;8.30;4.40;;;24.10;84.20;;;;;;5071871;28;20391;-72
2022/04/30 09:23:32;;;;;;;14.02;4.00;;;24.10;84.10;;;;;;5054950;28;20450;-71
2022/04/30 09:26:03;;;;;;;5.90;3.78;;;24.10;84.20;;;;;;5037134;28;20053;-75
2022/04/30 09:28:34;;;;;;;6.43;3.45;;;24.20;84.20;;;;;;5055953;28;20152;-70
2022/04/30 09:31:17;;;;;;;7.53;4.25;;;24.20;84.60;;;;;;5022849;28;20072;-71
2022/04/30 09:33:50;;;;;;;8.20;3.85;;;24.20;83.80;;;;;;5055867;28;20049;-70
2022/04/30 09:39:12;;;;;;;7.63;3.20;;;24.30;83.10;;;;;;5055498;28;20503;-70
2022/04/30 09:41:40;;;;;;;5.63;3.47;;;24.30;83.20;;;;;;5055538;28;20045;-72
2022/04/30 09:44:10;;;;;;;6.80;3.58;;;24.20;83.90;;;;;;5022475;28;20052;-71
2022/04/30 09:46:38;;;;;;;8.32;4.47;;;24.20;83.60;;;;;;5073595;28;20044;-71
2022/04/30 09:54:42;;;;;;;10.48;4.63;;;24.30;83.10;;;;;;5055727;28;20041;-71
2022/04/30 09:57:14;;;;;;;8.88;3.70;;;24.40;83.20;;;;;;5055451;28;20457;-71
2022/04/30 09:59:43;;;;;;;8.45;3.97;;;24.40;83.00;;;;;;5073680;28;20267;-73
2022/04/30 10:02:13;;;;;;;10.55;4.68;;;24.40;82.90;;;;;;5055608;28;20099;-70
2022/04/30 10:04:43;;;;;;;7.18;3.45;;;24.30;83.10;;;;;;5054719;28;20135;-71
2022/04/30 10:07:14;;;;;;;7.93;3.90;;;24.30;83.10;;;;;;5055606;28;20044;-71
2022/04/30 10:10:02;;;;;;;11.32;4.60;;;24.20;83.40;;;;;;5055188;28;20064;-71
2022/04/30 10:12:41;;;;;;;10.38;3.90;;;24.00;83.50;;;;;;5038557;28;20044;-72
2022/04/30 10:15:20;;;;;;;6.18;3.67;;;24.00;83.70;;;;;;5022269;28;20060;-69
2022/04/30 10:17:57;;;;;;;7.60;4.00;;;23.90;83.50;;;;;;5058631;28;20045;-71
2022/04/30 10:20:34;;;;;;;5.80;3.60;;;24.10;83.00;;;;;;5058332;28;20105;-71
2022/04/30 10:23:03;;;;;;;7.22;4.07;;;24.20;82.80;;;;;;5040823;28;20516;-70
2022/04/30 10:25:36;;;;;;;8.63;4.50;;;24.30;83.00;;;;;;5091769;28;20048;-71
2022/04/30 10:28:18;;;;;;;7.78;3.33;;;24.30;82.50;;;;;;5040959;28;20063;-71
2022/04/30 10:31:02;;;;;;;6.20;3.78;;;24.40;82.20;;;;;;5057744;28;20051;-72
2022/04/30 10:33:31;;;;;;;6.75;3.20;;;24.40;82.40;;;;;;5056968;28;20602;-72
2022/04/30 10:36:10;;;;;;;6.78;3.67;;;24.40;82.60;;;;;;5040683;28;20088;-71
2022/04/30 10:38:38;;;;;;;12.85;4.45;;;24.30;82.90;;;;;;5057244;28;20054;-73
2022/04/30 10:41:11;;;;;;;6.43;3.40;;;24.30;82.40;;;;;;5074047;28;20048;-70
2022/04/30 10:43:40;;;;;;;7.88;3.72;;;24.10;82.90;;;;;;5056657;28;20058;-76
2022/04/30 10:46:18;;;;;;;6.22;4.03;;;24.30;82.60;;;;;;5056737;28;20569;-73
2022/04/30 10:48:46;;;;;;;9.32;4.97;;;24.20;82.60;;;;;;5056683;28;20055;-71
2022/04/30 10:51:31;;;;;;;7.45;4.07;;;24.20;83.20;;;;;;5057175;28;20426;-69
2022/04/30 10:54:01;;;;;;;7.95;3.60;;;24.20;83.00;;;;;;5056740;28;20078;-69
2022/04/30 10:56:28;;;;;;;9.20;3.83;;;24.10;83.10;;;;;;5056486;28;20056;-71
2022/04/30 10:58:56;;;;;;;7.68;4.03;;;23.90;83.20;;;;;;5073586;28;20513;-71
2022/04/30 11:01:24;;;;;;;10.15;3.55;;;23.80;83.50;;;;;;5056744;28;20048;-69
2022/04/30 11:03:51;;;;;;;7.47;3.70;;;23.80;83.60;;;;;;5073797;28;20072;-71
2022/04/30 11:06:33;;;;;;;7.85;3.65;;;23.70;84.50;;;;;;5091558;28;20093;-72
2022/04/30 11:09:06;;;;;;;9.35;4.88;;;23.70;84.80;;;;;;5056240;28;20087;-72
2022/04/30 11:11:36;;;;;;;6.80;4.10;;;23.80;84.30;;;;;;5056693;28;20066;-73
2022/04/30 11:14:06;;;;;;;6.22;3.95;;;23.80;83.30;;;;;;5055793;28;20040;-71
2022/04/30 11:16:45;;;;;;;7.80;3.10;;;23.70;84.20;;;;;;5056827;28;20123;-72
2022/04/30 11:19:16;;;;;;;9.25;3.60;;;23.80;84.30;;;;;;5056442;28;20043;-71
2022/04/30 11:21:49;;;;;;;6.03;4.32;;;23.90;84.10;;;;;;5040407;28;20081;-71
2022/04/30 11:24:37;;;;;;;8.45;4.43;;;24.00;84.10;;;;;;5073392;28;20051;-72
2022/04/30 11:27:08;;;;;;;5.47;3.55;;;23.70;84.30;;;;;;5057097;28;20410;-72
2022/04/30 11:29:47;;;;;;;6.18;3.20;;;23.60;84.60;;;;;;5041037;28;20056;-73
2022/04/30 11:32:22;;;;;;;8.80;4.72;;;23.70;84.50;;;;;;5073851;28;20448;-72
2022/04/30 11:35:00;;;;;;;7.32;4.25;;;23.70;84.60;;;;;;5057150;28;20048;-72
2022/04/30 11:37:40;;;;;;;10.00;4.65;;;23.80;84.70;;;;;;5057020;28;20058;-73
2022/04/30 11:40:08;;;;;;;6.07;3.97;;;23.70;85.00;;;;;;5041053;28;20056;-71
2022/04/30 11:42:36;;;;;;;9.60;4.03;;;23.80;84.50;;;;;;5073844;28;20386;-71
2022/04/30 11:45:05;;;;;;;8.75;3.88;;;23.80;84.30;;;;;;5056684;28;20499;-72
2022/04/30 11:47:32;;;;;;;8.90;3.28;;;23.70;84.10;;;;;;5055681;28;20055;-72
2022/04/30 11:50:07;;;;;;;6.70;4.03;;;23.70;83.90;;;;;;5056675;28;20059;-72
2022/04/30 11:52:36;;;;;;;6.47;3.35;;;23.60;83.90;;;;;;5072595;28;20048;-71
2022/04/30 11:55:05;;;;;;;5.20;3.15;;;23.70;83.90;;;;;;5040037;28;20055;-72
2022/04/30 11:57:34;;;;;;;7.82;3.53;;;23.50;84.70;;;;;;5056487;28;20793;-73
2022/04/30 12:00:02;;;;;;;5.43;3.45;;;23.60;84.20;;;;;;5072200;28;20048;-71
2022/04/30 12:02:40;;;;;;;8.73;3.65;;;23.40;83.70;;;;;;5057911;28;20048;-73
2022/04/30 12:05:09;;;;;;;7.45;3.90;;;23.40;84.00;;;;;;5046532;28;20047;-71
2022/04/30 12:07:45;;;;;;;7.53;4.53;;;23.30;84.40;;;;;;5036983;28;20498;-69
2022/04/30 12:10:20;;;;;;;;;;;23.50;84.70;;;;;;5038425;28;20079;-71
2022/04/30 12:12:50;;;;;;;9.73;4.63;;;23.50;83.90;;;;;;5030514;28;19927;-71
2022/04/30 12:15:25;;;;;;;10.25;4.70;;;23.50;83.90;;;;;;5037507;28;20063;-69
2022/04/30 12:27:03;;;;;;;10.20;4.68;;;23.50;83.80;;;;;;5060034;28;20044;-70
2022/04/30 12:29:32;;;;;;;7.20;4.15;;;23.50;84.30;;;;;;5052766;28;20059;-70
2022/04/30 12:32:04;;;;;;;12.10;5.60;;;23.40;84.70;;;;;;5047118;28;20105;-71
2022/04/30 12:34:38;;;;;;;6.60;4.03;;;23.40;85.20;;;;;;5037389;28;20059;-71
2022/04/30 12:37:07;;;;;;;5.82;4.40;;;23.30;85.00;;;;;;5061820;28;20055;-69
2022/04/30 12:39:37;;;;;;;10.18;4.35;;;23.30;84.30;;;;;;5090150;28;20044;-70
2022/04/30 12:42:09;;;;;;;10.10;3.95;;;23.20;83.80;;;;;;5069343;28;20055;-71
2022/04/30 12:44:37;;;;;;;6.18;4.28;;;23.20;83.70;;;;;;5035991;28;20051;-71
2022/04/30 12:47:06;;;;;;;7.50;4.05;;;23.20;83.70;;;;;;5051571;28;20044;-69
2022/04/30 12:49:33;;;;;;;6.30;3.67;;;23.20;83.60;;;;;;5052396;28;20044;-69
2022/04/30 12:52:01;;;;;;;5.45;4.22;;;23.30;83.80;;;;;;5029572;28;20056;-73
2022/04/30 12:54:29;;;;;;;7.30;4.30;;;23.30;84.20;;;;;;5051703;28;20041;-70
2022/04/30 12:57:00;;;;;;;8.60;5.30;;;23.30;84.30;;;;;;5053059;28;20054;-70
2022/04/30 12:59:27;;;;;;;5.95;3.67;;;23.40;84.00;;;;;;5019635;28;20102;-69
2022/04/30 13:01:55;;;;;;;5.65;3.90;;;23.30;84.60;;;;;;5029377;28;20045;-69
2022/04/30 13:04:23;;;;;;;11.10;4.68;;;23.20;84.20;;;;;;5076649;28;20048;-71
2022/04/30 13:06:51;;;;;;;8.82;4.50;;;23.20;84.00;;;;;;5064805;28;20037;-70
2022/04/30 13:14:52;;;;;;;;;;;23.10;84.00;;;;;;5053968;28;20063;-69
2022/04/30 13:17:20;;;;;;;9.25;4.45;;;22.90;84.60;;;;;;5045386;28;19947;-69
2022/04/30 13:19:49;;;;;;;8.98;4.55;;;23.00;84.00;;;;;;5071287;28;20520;-72
2022/04/30 13:22:17;;;;;;;5.20;4.05;;;22.90;83.70;;;;;;5063964;28;20076;-69
2022/04/30 13:24:45;;;;;;;5.60;3.50;;;22.90;83.80;;;;;;5035994;28;20099;-69
2022/04/30 13:27:13;;;;;;;9.77;4.10;;;22.80;83.60;;;;;;5067753;28;20066;-71
2022/04/30 13:29:41;;;;;;;7.18;3.92;;;22.70;83.60;;;;;;5062728;28;20462;-69
2022/04/30 13:32:10;;;;;;;8.00;4.88;;;22.60;83.60;;;;;;5052433;28;20045;-71
2022/04/30 13:34:38;;;;;;;5.50;4.07;;;22.60;84.00;;;;;;5053349;28;20103;-71
2022/04/30 13:37:07;;;;;;;6.72;3.80;;;22.70;84.00;;;;;;5035525;28;20033;-69
2022/04/30 13:39:34;;;;;;;11.90;4.93;;;22.70;83.20;;;;;;5052220;28;20049;-70
2022/04/30 13:42:04;;;;;;;8.93;3.70;;;22.70;82.90;;;;;;5051835;28;20045;-69
2022/04/30 13:44:31;;;;;;;7.18;3.97;;;22.70;83.30;;;;;;5052311;28;20076;-70
2022/04/30 13:46:59;;;;;;;6.35;4.30;;;22.80;83.10;;;;;;5035276;28;20053;-71
2022/04/30 13:49:28;;;;;;;7.25;4.20;;;22.70;82.70;;;;;;5053629;28;20057;-69
2022/04/30 13:51:56;;;;;;;6.32;4.18;;;22.70;82.50;;;;;;5019715;28;20079;-72